CheckWX is a tool to help pilots better visualize weather data.  It is not intended as a substitute for an official pre-flight weather briefing.

22:50:19 UTC

KHPN METAR
Westchester County Airport
White Plains, New York, USA
Current

54 mins ago

KHPN 152156Z 25007KT 10SM CLR 29/13 A3000 RMK AO2 SLP154 T02890128
Observed
Jul-15 @ 21:56 UTC
Wind
  • 250° at 7 KTS
Visibility
10 SM
Flight Rules
VFR
Cloud Levels
  • Clear skies
Temperature
29°C / 84°F
Dewpoint
13°C / 55°F
Humidity
37%
Altimeter
30" Hg
Pressure
1015.92 hPa
Previous

2 hours ago

KHPN 152056Z 30009KT 10SM FEW040 29/13 A3001 RMK AO2 SLP157 T02940133 56010
Observed
Jul-15 @ 20:56 UTC
Wind
  • 300° at 9 KTS
Visibility
10 SM
Flight Rules
VFR
Cloud Levels
  • Few at 4,000' AGL
Temperature
29°C / 84°F
Dewpoint
13°C / 55°F
Humidity
37%
Altimeter
30.01" Hg
Pressure
1016.22 hPa
Previous

3 hours ago

KHPN 151956Z 30009KT 10SM FEW040 29/13 A3002 RMK AO2 SLP159 T02890133
Observed
Jul-15 @ 19:56 UTC
Wind
  • 300° at 9 KTS
Visibility
10 SM
Flight Rules
VFR
Cloud Levels
  • Few at 4,000' AGL
Temperature
29°C / 84°F
Dewpoint
13°C / 55°F
Humidity
37%
Altimeter
30.02" Hg
Pressure
1016.62 hPa